sensor_id;sensor_type;location;lat;lon;timestamp;pressure;altitude;pressure_sealevel;temperature;humidity
51229;BME280;37304;52.216;6.874;2022-08-06T00:03:01;102170.31;;;13.00;100.00
51229;BME280;37304;52.216;6.874;2022-08-06T00:08:06;102173.81;;;12.96;100.00
51229;BME280;37304;52.216;6.874;2022-08-06T00:13:07;102174.69;;;12.90;100.00
51229;BME280;37304;52.216;6.874;2022-08-06T00:18:10;102182.50;;;12.89;100.00
51229;BME280;37304;52.216;6.874;2022-08-06T00:23:11;102197.38;;;12.79;100.00
51229;BME280;37304;52.216;6.874;2022-08-06T00:33:51;102195.66;;;12.72;100.00
51229;BME280;37304;52.216;6.874;2022-08-06T00:44:32;102214.84;;;12.53;100.00
51229;BME280;37304;52.216;6.874;2022-08-06T00:49:55;102230.47;;;12.53;100.00
51229;BME280;37304;52.216;6.874;2022-08-06T00:55:10;102231.38;;;12.46;100.00
51229;BME280;37304;52.216;6.874;2022-08-06T01:00:26;102238.34;;;12.41;100.00
51229;BME280;37304;52.216;6.874;2022-08-06T01:05:48;102242.69;;;12.39;100.00
51229;BME280;37304;52.216;6.874;2022-08-06T01:10:48;102253.09;;;12.31;100.00
51229;BME280;37304;52.216;6.874;2022-08-06T01:16:35;102247.91;;;12.19;100.00
51229;BME280;37304;52.216;6.874;2022-08-06T01:32:15;102258.34;;;12.05;100.00
51229;BME280;37304;52.216;6.874;2022-08-06T01:37:41;102268.75;;;12.05;100.00
51229;BME280;37304;52.216;6.874;2022-08-06T01:42:54;102270.47;;;11.97;100.00
51229;BME280;37304;52.216;6.874;2022-08-06T01:48:00;102260.03;;;11.90;100.00
51229;BME280;37304;52.216;6.874;2022-08-06T01:53:03;102268.72;;;11.88;100.00
51229;BME280;37304;52.216;6.874;2022-08-06T01:58:04;102270.47;;;11.84;100.00
51229;BME280;37304;52.216;6.874;2022-08-06T02:03:11;102274.81;;;11.82;100.00
51229;BME280;37304;52.216;6.874;2022-08-06T02:08:14;102275.66;;;11.76;100.00
51229;BME280;37304;52.216;6.874;2022-08-06T02:13:17;102276.53;;;11.74;100.00
51229;BME280;37304;52.216;6.874;2022-08-06T02:18:21;102271.31;;;11.69;100.00
51229;BME280;37304;52.216;6.874;2022-08-06T02:23:24;102280.84;;;11.61;100.00
51229;BME280;37304;52.216;6.874;2022-08-06T02:28:28;102281.69;;;11.58;100.00
51229;BME280;37304;52.216;6.874;2022-08-06T02:33:30;102290.34;;;11.51;100.00
51229;BME280;37304;52.216;6.874;2022-08-06T02:38:50;102292.06;;;11.49;100.00
51229;BME280;37304;52.216;6.874;2022-08-06T02:44:13;102286.00;;;11.45;100.00
51229;BME280;37304;52.216;6.874;2022-08-06T02:49:29;102296.41;;;11.45;100.00
51229;BME280;37304;52.216;6.874;2022-08-06T02:54:46;102286.84;;;11.43;100.00
51229;BME280;37304;52.216;6.874;2022-08-06T02:59:52;102298.13;;;11.37;100.00
51229;BME280;37304;52.216;6.874;2022-08-06T03:04:54;102290.31;;;11.37;100.00
51229;BME280;37304;52.216;6.874;2022-08-06T03:09:58;102280.75;;;11.27;100.00
51229;BME280;37304;52.216;6.874;2022-08-06T03:15:06;102288.53;;;11.25;100.00
51229;BME280;37304;52.216;6.874;2022-08-06T03:20:08;102292.84;;;11.21;100.00
51229;BME280;37304;52.216;6.874;2022-08-06T03:25:13;102300.66;;;11.17;100.00
51229;BME280;37304;52.216;6.874;2022-08-06T03:30:15;102304.09;;;11.14;100.00
51229;BME280;37304;52.216;6.874;2022-08-06T03:35:16;102304.94;;;11.10;100.00
51229;BME280;37304;52.216;6.874;2022-08-06T03:40:20;102312.75;;;11.05;100.00
51229;BME280;37304;52.216;6.874;2022-08-06T03:45:23;102321.41;;;11.04;100.00
51229;BME280;37304;52.216;6.874;2022-08-06T03:50:34;102319.66;;;10.97;100.00
51229;BME280;37304;52.216;6.874;2022-08-06T03:55:37;102330.88;;;10.95;100.00
51229;BME280;37304;52.216;6.874;2022-08-06T04:00:46;102333.47;;;10.88;100.00
51229;BME280;37304;52.216;6.874;2022-08-06T04:05:49;102345.59;;;10.86;100.00
51229;BME280;37304;52.216;6.874;2022-08-06T04:10:51;102336.84;;;10.80;100.00
51229;BME280;37304;52.216;6.874;2022-08-06T04:15:53;102342.94;;;10.80;100.00
51229;BME280;37304;52.216;6.874;2022-08-06T04:20:57;102351.63;;;10.84;100.00
51229;BME280;37304;52.216;6.874;2022-08-06T04:26:01;102356.78;;;10.77;100.00
51229;BME280;37304;52.216;6.874;2022-08-06T04:31:02;102350.75;;;10.80;100.00
51229;BME280;37304;52.216;6.874;2022-08-06T04:36:04;102354.97;;;10.62;100.00
51229;BME280;37304;52.216;6.874;2022-08-06T04:41:06;102369.78;;;10.76;100.00
51229;BME280;37304;52.216;6.874;2022-08-06T04:46:07;102371.56;;;10.80;100.00
51229;BME280;37304;52.216;6.874;2022-08-06T04:51:08;102375.03;;;10.84;100.00
51229;BME280;37304;52.216;6.874;2022-08-06T04:56:09;102388.94;;;10.89;100.00
51229;BME280;37304;52.216;6.874;2022-08-06T05:01:10;102396.75;;;10.92;100.00
51229;BME280;37304;52.216;6.874;2022-08-06T05:11:51;102410.69;;;11.02;100.00
51229;BME280;37304;52.216;6.874;2022-08-06T05:16:54;102410.75;;;11.08;100.00
51229;BME280;37304;52.216;6.874;2022-08-06T05:21:57;102402.13;;;11.18;100.00
51229;BME280;37304;52.216;6.874;2022-08-06T05:26:58;102408.28;;;11.31;100.00
51229;BME280;37304;52.216;6.874;2022-08-06T05:32:03;102410.97;;;11.48;100.00
51229;BME280;37304;52.216;6.874;2022-08-06T05:37:04;102418.00;;;11.67;100.00
51229;BME280;37304;52.216;6.874;2022-08-06T05:42:05;102415.47;;;11.85;100.00
51229;BME280;37304;52.216;6.874;2022-08-06T05:47:12;102422.56;;;12.92;100.00
51229;BME280;37304;52.216;6.874;2022-08-06T05:52:28;102424.16;;;13.71;100.00
51229;BME280;37304;52.216;6.874;2022-08-06T05:57:35;102431.66;;;14.31;100.00
51229;BME280;37304;52.216;6.874;2022-08-06T06:02:41;102429.59;;;14.75;100.00
51229;BME280;37304;52.216;6.874;2022-08-06T06:07:42;102446.31;;;14.52;100.00
51229;BME280;37304;52.216;6.874;2022-08-06T06:12:43;102452.34;;;14.61;100.00
51229;BME280;37304;52.216;6.874;2022-08-06T06:23:26;102453.16;;;14.72;100.00
51229;BME280;37304;52.216;6.874;2022-08-06T06:28:34;102457.44;;;14.82;100.00
51229;BME280;37304;52.216;6.874;2022-08-06T06:34:12;102458.25;;;14.91;100.00
51229;BME280;37304;52.216;6.874;2022-08-06T06:39:25;102457.22;;;15.10;100.00
51229;BME280;37304;52.216;6.874;2022-08-06T06:44:36;102471.88;;;15.28;100.00
51229;BME280;37304;52.216;6.874;2022-08-06T06:49:42;102460.25;;;15.50;100.00
51229;BME280;37304;52.216;6.874;2022-08-06T06:54:54;102462.63;;;15.75;100.00
51229;BME280;37304;52.216;6.874;2022-08-06T07:00:01;102462.47;;;15.85;100.00
51229;BME280;37304;52.216;6.874;2022-08-06T07:05:02;102464.91;;;16.02;100.00
51229;BME280;37304;52.216;6.874;2022-08-06T07:10:05;102468.31;;;16.08;100.00
51229;BME280;37304;52.216;6.874;2022-08-06T07:15:09;102467.72;;;16.51;100.00
51229;BME280;37304;52.216;6.874;2022-08-06T07:20:14;102478.00;;;16.65;100.00
51229;BME280;37304;52.216;6.874;2022-08-06T07:25:16;102487.25;;;16.86;98.67
51229;BME280;37304;52.216;6.874;2022-08-06T07:30:19;102484.16;;;17.16;100.00
51229;BME280;37304;52.216;6.874;2022-08-06T07:35:20;102488.56;;;17.15;93.66
51229;BME280;37304;52.216;6.874;2022-08-06T07:40:37;102490.53;;;17.50;94.33
51229;BME280;37304;52.216;6.874;2022-08-06T07:45:39;102494.28;;;17.82;88.19
51229;BME280;37304;52.216;6.874;2022-08-06T07:50:42;102499.50;;;17.85;86.98
51229;BME280;37304;52.216;6.874;2022-08-06T07:55:44;102500.78;;;18.08;85.15
51229;BME280;37304;52.216;6.874;2022-08-06T08:00:45;102496.72;;;17.91;81.05
51229;BME280;37304;52.216;6.874;2022-08-06T08:05:48;102508.69;;;18.08;78.93
51229;BME280;37304;52.216;6.874;2022-08-06T08:11:08;102493.47;;;18.60;81.48
51229;BME280;37304;52.216;6.874;2022-08-06T08:16:12;102502.59;;;18.45;77.43
51229;BME280;37304;52.216;6.874;2022-08-06T08:21:14;102498.16;;;18.83;79.41
51229;BME280;37304;52.216;6.874;2022-08-06T08:26:14;102502.66;;;19.47;76.13
51229;BME280;37304;52.216;6.874;2022-08-06T08:31:15;102496.22;;;18.91;73.60
51229;BME280;37304;52.216;6.874;2022-08-06T08:36:15;102505.47;;;19.41;72.77
51229;BME280;37304;52.216;6.874;2022-08-06T08:41:23;102503.66;;;19.43;71.64
51229;BME280;37304;52.216;6.874;2022-08-06T08:46:26;102506.22;;;19.78;68.49
51229;BME280;37304;52.216;6.874;2022-08-06T08:51:27;102498.44;;;19.73;66.18
51229;BME280;37304;52.216;6.874;2022-08-06T08:56:28;102504.00;;;20.24;67.62
51229;BME280;37304;52.216;6.874;2022-08-06T09:01:32;102500.97;;;20.65;66.59
51229;BME280;37304;52.216;6.874;2022-08-06T09:06:33;102501.13;;;20.87;66.38
51229;BME280;37304;52.216;6.874;2022-08-06T09:11:35;102505.06;;;20.74;64.62
51229;BME280;37304;52.216;6.874;2022-08-06T09:16:41;102516.38;;;20.50;63.17
51229;BME280;37304;52.216;6.874;2022-08-06T09:21:45;102524.16;;;20.27;60.31
51229;BME280;37304;52.216;6.874;2022-08-06T09:27:06;102524.78;;;21.17;62.70
51229;BME280;37304;52.216;6.874;2022-08-06T09:32:08;102516.53;;;21.27;59.53
51229;BME280;37304;52.216;6.874;2022-08-06T09:37:10;102526.28;;;21.75;57.26
51229;BME280;37304;52.216;6.874;2022-08-06T09:42:10;102529.53;;;21.82;57.08
51229;BME280;37304;52.216;6.874;2022-08-06T09:47:19;102522.72;;;21.26;56.55
51229;BME280;37304;52.216;6.874;2022-08-06T09:52:20;102526.38;;;20.69;58.59
51229;BME280;37304;52.216;6.874;2022-08-06T09:57:27;102524.63;;;21.96;58.19
51229;BME280;37304;52.216;6.874;2022-08-06T10:02:32;102520.84;;;22.02;56.65
51229;BME280;37304;52.216;6.874;2022-08-06T10:07:33;102529.66;;;22.49;52.16
51229;BME280;37304;52.216;6.874;2022-08-06T10:12:33;102518.16;;;23.13;50.14
51229;BME280;37304;52.216;6.874;2022-08-06T10:17:34;102508.19;;;24.18;50.15
51229;BME280;37304;52.216;6.874;2022-08-06T10:22:34;102509.97;;;22.77;49.94
51229;BME280;37304;52.216;6.874;2022-08-06T10:27:35;102513.06;;;21.75;50.81
51229;BME280;37304;52.216;6.874;2022-08-06T10:32:43;102511.91;;;21.33;52.12
51229;BME280;37304;52.216;6.874;2022-08-06T10:37:52;102502.59;;;22.40;50.51
51229;BME280;37304;52.216;6.874;2022-08-06T10:42:53;102491.06;;;22.19;51.71
51229;BME280;37304;52.216;6.874;2022-08-06T10:47:55;102485.28;;;22.09;52.90
51229;BME280;37304;52.216;6.874;2022-08-06T10:52:57;102487.00;;;21.64;54.47
51229;BME280;37304;52.216;6.874;2022-08-06T10:57:58;102480.78;;;23.20;54.87
51229;BME280;37304;52.216;6.874;2022-08-06T11:03:16;102476.38;;;22.34;50.14
51229;BME280;37304;52.216;6.874;2022-08-06T11:08:32;102470.91;;;23.03;48.65
51229;BME280;37304;52.216;6.874;2022-08-06T11:14:04;102467.75;;;23.74;48.08
51229;BME280;37304;52.216;6.874;2022-08-06T11:19:08;102461.28;;;23.61;48.72
51229;BME280;37304;52.216;6.874;2022-08-06T11:24:09;102463.13;;;23.39;45.35
51229;BME280;37304;52.216;6.874;2022-08-06T11:29:12;102456.66;;;22.42;46.47
51229;BME280;37304;52.216;6.874;2022-08-06T11:34:15;102460.56;;;22.96;45.88
51229;BME280;37304;52.216;6.874;2022-08-06T11:39:17;102451.78;;;22.31;45.75
51229;BME280;37304;52.216;6.874;2022-08-06T11:44:26;102453.69;;;22.49;46.20
51229;BME280;37304;52.216;6.874;2022-08-06T11:49:40;102446.81;;;23.07;43.83
51229;BME280;37304;52.216;6.874;2022-08-06T12:04:45;102440.13;;;25.05;41.34
51229;BME280;37304;52.216;6.874;2022-08-06T12:20:11;102427.03;;;28.85;39.42
51229;BME280;37304;52.216;6.874;2022-08-06T12:25:12;102425.81;;;28.76;36.42
51229;BME280;37304;52.216;6.874;2022-08-06T12:30:12;102433.53;;;29.19;33.96
51229;BME280;37304;52.216;6.874;2022-08-06T12:35:19;102424.84;;;30.15;34.53
51229;BME280;37304;52.216;6.874;2022-08-06T12:40:20;102420.97;;;29.94;31.53
51229;BME280;37304;52.216;6.874;2022-08-06T12:45:31;102411.88;;;29.23;30.34
51229;BME280;37304;52.216;6.874;2022-08-06T12:50:34;102415.88;;;28.91;30.98
51229;BME280;37304;52.216;6.874;2022-08-06T13:00:38;102416.88;;;28.37;34.51
51229;BME280;37304;52.216;6.874;2022-08-06T13:05:41;102415.53;;;26.13;36.27
51229;BME280;37304;52.216;6.874;2022-08-06T13:10:51;102426.22;;;25.49;38.48
51229;BME280;37304;52.216;6.874;2022-08-06T13:16:07;102426.31;;;25.14;39.31
51229;BME280;37304;52.216;6.874;2022-08-06T13:21:18;102427.31;;;24.42;41.00
51229;BME280;37304;52.216;6.874;2022-08-06T13:26:24;102427.03;;;23.93;41.30
51229;BME280;37304;52.216;6.874;2022-08-06T13:31:25;102424.69;;;23.48;41.53
51229;BME280;37304;52.216;6.874;2022-08-06T13:36:27;102424.78;;;23.47;43.36
51229;BME280;37304;52.216;6.874;2022-08-06T13:41:28;102417.38;;;23.34;42.51
51229;BME280;37304;52.216;6.874;2022-08-06T13:46:42;102415.19;;;23.23;42.30
51229;BME280;37304;52.216;6.874;2022-08-06T13:51:43;102414.28;;;23.24;42.66
51229;BME280;37304;52.216;6.874;2022-08-06T13:56:43;102419.34;;;22.89;44.14
51229;BME280;37304;52.216;6.874;2022-08-06T14:01:45;102414.84;;;22.71;45.21
51229;BME280;37304;52.216;6.874;2022-08-06T14:06:46;102416.94;;;22.83;44.85
51229;BME280;37304;52.216;6.874;2022-08-06T14:11:53;102420.28;;;22.88;43.94
51229;BME280;37304;52.216;6.874;2022-08-06T14:16:56;102414.16;;;22.65;43.87
51229;BME280;37304;52.216;6.874;2022-08-06T14:21:57;102421.31;;;22.63;44.28
51229;BME280;37304;52.216;6.874;2022-08-06T14:26:57;102403.56;;;22.86;45.40
51229;BME280;37304;52.216;6.874;2022-08-06T14:31:58;102404.38;;;22.67;45.58
51229;BME280;37304;52.216;6.874;2022-08-06T14:36:58;102413.69;;;22.97;45.42
51229;BME280;37304;52.216;6.874;2022-08-06T14:41:59;102403.88;;;22.99;47.99
51229;BME280;37304;52.216;6.874;2022-08-06T14:47:38;102403.88;;;22.99;47.86
51229;BME280;37304;52.216;6.874;2022-08-06T14:52:38;102390.91;;;22.51;48.43
51229;BME280;37304;52.216;6.874;2022-08-06T14:57:40;102398.94;;;22.50;48.49
51229;BME280;37304;52.216;6.874;2022-08-06T15:02:44;102385.97;;;21.99;48.95
51229;BME280;37304;52.216;6.874;2022-08-06T15:07:46;102373.22;;;22.09;49.44
51229;BME280;37304;52.216;6.874;2022-08-06T15:12:47;102362.94;;;22.01;50.37
51229;BME280;37304;52.216;6.874;2022-08-06T15:17:47;102367.16;;;21.85;50.55
51229;BME280;37304;52.216;6.874;2022-08-06T15:22:48;102372.84;;;21.74;49.92
51229;BME280;37304;52.216;6.874;2022-08-06T15:27:48;102364.00;;;21.97;50.11
51229;BME280;37304;52.216;6.874;2022-08-06T15:32:48;102365.94;;;21.93;50.49
51229;BME280;37304;52.216;6.874;2022-08-06T15:37:49;102369.28;;;21.97;48.28
51229;BME280;37304;52.216;6.874;2022-08-06T15:42:50;102364.88;;;21.75;49.01
51229;BME280;37304;52.216;6.874;2022-08-06T15:47:50;102369.75;;;21.62;48.00
51229;BME280;37304;52.216;6.874;2022-08-06T15:52:51;102358.41;;;21.82;48.26
51229;BME280;37304;52.216;6.874;2022-08-06T15:57:51;102362.72;;;21.61;49.23
51229;BME280;37304;52.216;6.874;2022-08-06T16:02:52;102367.09;;;21.62;50.74
51229;BME280;37304;52.216;6.874;2022-08-06T16:07:53;102367.19;;;21.61;51.07
51229;BME280;37304;52.216;6.874;2022-08-06T16:12:57;102354.25;;;21.53;49.89
51229;BME280;37304;52.216;6.874;2022-08-06T16:17:58;102355.09;;;21.53;49.70
51229;BME280;37304;52.216;6.874;2022-08-06T16:23:01;102353.59;;;21.46;49.00
51229;BME280;37304;52.216;6.874;2022-08-06T16:28:03;102358.09;;;21.44;50.75
51229;BME280;37304;52.216;6.874;2022-08-06T16:33:04;102358.66;;;21.52;49.49
51229;BME280;37304;52.216;6.874;2022-08-06T16:38:07;102351.94;;;21.44;49.68
51229;BME280;37304;52.216;6.874;2022-08-06T16:43:08;102353.72;;;21.43;49.31
51229;BME280;37304;52.216;6.874;2022-08-06T16:48:08;102347.75;;;21.38;49.96
51229;BME280;37304;52.216;6.874;2022-08-06T16:53:09;102348.34;;;21.22;49.99
51229;BME280;37304;52.216;6.874;2022-08-06T16:58:10;102342.25;;;21.20;50.29
51229;BME280;37304;52.216;6.874;2022-08-06T17:03:10;102343.44;;;21.12;50.06
51229;BME280;37304;52.216;6.874;2022-08-06T17:08:10;102328.16;;;21.44;50.52
51229;BME280;37304;52.216;6.874;2022-08-06T17:13:11;102328.88;;;21.47;50.28
51229;BME280;37304;52.216;6.874;2022-08-06T17:18:11;102326.38;;;21.20;50.45
51229;BME280;37304;52.216;6.874;2022-08-06T17:23:12;102321.44;;;21.35;50.54
51229;BME280;37304;52.216;6.874;2022-08-06T17:28:14;102318.28;;;21.25;50.77
51229;BME280;37304;52.216;6.874;2022-08-06T17:33:14;102322.25;;;21.13;50.37
51229;BME280;37304;52.216;6.874;2022-08-06T17:38:20;102317.47;;;20.99;50.43
51229;BME280;37304;52.216;6.874;2022-08-06T17:43:22;102323.00;;;20.67;50.84
51229;BME280;37304;52.216;6.874;2022-08-06T17:48:22;102323.44;;;20.55;51.58
51229;BME280;37304;52.216;6.874;2022-08-06T17:53:23;102330.38;;;20.32;52.32
51229;BME280;37304;52.216;6.874;2022-08-06T17:58:24;102333.16;;;20.28;52.74
51229;BME280;37304;52.216;6.874;2022-08-06T18:03:27;102328.06;;;20.23;53.64
51229;BME280;37304;52.216;6.874;2022-08-06T18:08:27;102326.41;;;20.19;53.98
51229;BME280;37304;52.216;6.874;2022-08-06T18:13:29;102332.22;;;20.03;54.45
51229;BME280;37304;52.216;6.874;2022-08-06T18:18:29;102333.22;;;19.99;54.76
51229;BME280;37304;52.216;6.874;2022-08-06T18:41:34;102341.06;;;19.44;56.92
51229;BME280;37304;52.216;6.874;2022-08-06T18:46:49;102341.44;;;19.31;57.97
51229;BME280;37304;52.216;6.874;2022-08-06T18:52:13;102343.66;;;19.15;58.67
51229;BME280;37304;52.216;6.874;2022-08-06T18:57:48;102342.13;;;19.08;59.16
51229;BME280;37304;52.216;6.874;2022-08-06T19:03:01;102346.81;;;18.97;60.76
51229;BME280;37304;52.216;6.874;2022-08-06T19:08:04;102340.13;;;18.83;61.27
51229;BME280;37304;52.216;6.874;2022-08-06T19:18:17;102350.59;;;18.53;64.89
51229;BME280;37304;52.216;6.874;2022-08-06T19:28:40;102363.50;;;18.28;68.80
51229;BME280;37304;52.216;6.874;2022-08-06T19:33:50;102362.91;;;18.16;69.32
51229;BME280;37304;52.216;6.874;2022-08-06T19:38:50;102362.38;;;18.02;70.93
51229;BME280;37304;52.216;6.874;2022-08-06T19:43:52;102365.22;;;17.91;68.97
51229;BME280;37304;52.216;6.874;2022-08-06T19:48:53;102366.41;;;17.78;72.02
51229;BME280;37304;52.216;6.874;2022-08-06T19:53:54;102372.94;;;17.59;72.60
51229;BME280;37304;52.216;6.874;2022-08-06T19:58:55;102375.66;;;17.55;72.41
51229;BME280;37304;52.216;6.874;2022-08-06T20:03:56;102380.13;;;17.50;74.07
51229;BME280;37304;52.216;6.874;2022-08-06T20:08:56;102370.84;;;17.35;75.05
51229;BME280;37304;52.216;6.874;2022-08-06T20:13:59;102378.91;;;17.25;76.07
51229;BME280;37304;52.216;6.874;2022-08-06T20:19:00;102386.22;;;17.09;77.00
51229;BME280;37304;52.216;6.874;2022-08-06T20:24:00;102390.81;;;16.98;78.59
51229;BME280;37304;52.216;6.874;2022-08-06T20:29:01;102390.91;;;16.92;76.04
51229;BME280;37304;52.216;6.874;2022-08-06T20:34:03;102396.28;;;16.84;76.56
51229;BME280;37304;52.216;6.874;2022-08-06T20:39:05;102398.03;;;16.83;76.93
51229;BME280;37304;52.216;6.874;2022-08-06T20:44:05;102396.47;;;16.74;78.58
51229;BME280;37304;52.216;6.874;2022-08-06T20:49:07;102401.84;;;16.67;79.20
51229;BME280;37304;52.216;6.874;2022-08-06T20:54:08;102398.50;;;16.57;80.91
51229;BME280;37304;52.216;6.874;2022-08-06T20:59:08;102400.28;;;16.55;80.04
51229;BME280;37304;52.216;6.874;2022-08-06T21:04:11;102408.34;;;16.44;81.96
51229;BME280;37304;52.216;6.874;2022-08-06T21:09:12;102408.44;;;16.36;82.27
51229;BME280;37304;52.216;6.874;2022-08-06T21:14:13;102406.03;;;16.22;83.81
51229;BME280;37304;52.216;6.874;2022-08-06T21:19:13;102400.88;;;16.16;83.30
51229;BME280;37304;52.216;6.874;2022-08-06T21:24:20;102408.78;;;16.14;84.27
51229;BME280;37304;52.216;6.874;2022-08-06T21:29:21;102404.53;;;16.07;84.16
51229;BME280;37304;52.216;6.874;2022-08-06T21:34:21;102404.72;;;15.95;84.53
51229;BME280;37304;52.216;6.874;2022-08-06T21:39:23;102400.38;;;15.92;85.64
51229;BME280;37304;52.216;6.874;2022-08-06T21:44:24;102407.44;;;15.84;87.76
51229;BME280;37304;52.216;6.874;2022-08-06T21:49:26;102409.34;;;15.72;88.24
51229;BME280;37304;52.216;6.874;2022-08-06T21:54:27;102403.31;;;15.67;88.31
51229;BME280;37304;52.216;6.874;2022-08-06T21:59:27;102395.53;;;15.61;88.85
51229;BME280;37304;52.216;6.874;2022-08-06T22:04:27;102398.22;;;15.53;89.02
51229;BME280;37304;52.216;6.874;2022-08-06T22:09:28;102395.66;;;15.50;88.83
51229;BME280;37304;52.216;6.874;2022-08-06T22:14:30;102403.56;;;15.46;90.38
51229;BME280;37304;52.216;6.874;2022-08-06T22:19:30;102400.13;;;15.40;90.59
51229;BME280;37304;52.216;6.874;2022-08-06T22:24:31;102398.44;;;15.36;89.29
51229;BME280;37304;52.216;6.874;2022-08-06T22:29:31;102395.97;;;15.22;92.37
51229;BME280;37304;52.216;6.874;2022-08-06T22:34:51;102385.59;;;15.13;92.88
51229;BME280;37304;52.216;6.874;2022-08-06T22:39:52;102382.13;;;15.11;93.23
51229;BME280;37304;52.216;6.874;2022-08-06T22:44:52;102380.47;;;15.05;93.42
51229;BME280;37304;52.216;6.874;2022-08-06T22:49:55;102376.16;;;14.98;95.59
51229;BME280;37304;52.216;6.874;2022-08-06T22:54:56;102378.03;;;14.83;95.78
51229;BME280;37304;52.216;6.874;2022-08-06T22:59:56;102375.47;;;14.77;96.28
51229;BME280;37304;52.216;6.874;2022-08-06T23:04:57;102371.13;;;14.76;96.87
51229;BME280;37304;52.216;6.874;2022-08-06T23:09:57;102361.59;;;14.67;96.14
51229;BME280;37304;52.216;6.874;2022-08-06T23:15:05;102359.84;;;14.68;97.18
51229;BME280;37304;52.216;6.874;2022-08-06T23:20:07;102364.25;;;14.63;97.22
51229;BME280;37304;52.216;6.874;2022-08-06T23:25:09;102356.50;;;14.52;98.01
51229;BME280;37304;52.216;6.874;2022-08-06T23:30:09;102352.13;;;14.51;98.35
51229;BME280;37304;52.216;6.874;2022-08-06T23:35:13;102354.84;;;14.43;98.79
51229;BME280;37304;52.216;6.874;2022-08-06T23:40:14;102362.69;;;14.43;99.28
51229;BME280;37304;52.216;6.874;2022-08-06T23:45:14;102357.56;;;14.31;99.78
51229;BME280;37304;52.216;6.874;2022-08-06T23:50:14;102358.41;;;14.31;99.61
51229;BME280;37304;52.216;6.874;2022-08-06T23:55:15;102350.63;;;14.26;100.00
